Time;durP1;ratioP1;P1;durP2;ratioP2;P2;SDS_P1;SDS_P2;PMS_P1;PMS_P2;Temp;Humidity;BMP_temperature;BMP_pressure;BME280_temperature;BME280_humidity;BME280_pressure;Samples;Min_cycle;Max_cycle;Signal;HPM_P1;HPM_P2
2023/07/28 00:02:09;;;;;;;2.23;1.20;;;23.40;51.50;;;;;;5155569;27;20768;-51
2023/07/28 00:04:36;;;;;;;1.80;1.03;;;23.40;51.60;;;;;;5155701;27;20407;-53
2023/07/28 00:07:03;;;;;;;1.60;1.00;;;23.40;52.40;;;;;;5155418;27;20431;-51
2023/07/28 00:09:29;;;;;;;2.33;1.07;;;23.40;51.80;;;;;;5154953;27;20480;-53
2023/07/28 00:12:00;;;;;;;1.97;1.40;;;23.40;51.70;;;;;;5155424;27;20418;-54
2023/07/28 00:14:27;;;;;;;1.20;0.80;;;23.40;51.90;;;;;;5155298;27;20412;-52
2023/07/28 00:16:53;;;;;;;2.40;1.00;;;23.40;51.90;;;;;;5155285;27;20408;-51
2023/07/28 00:19:21;;;;;;;1.80;1.20;;;23.30;52.00;;;;;;5154893;27;20422;-54
2023/07/28 00:21:51;;;;;;;1.10;0.73;;;23.40;52.10;;;;;;5155368;27;20475;-51
2023/07/28 00:24:17;;;;;;;1.73;1.30;;;23.40;52.10;;;;;;5155683;27;20395;-51
2023/07/28 00:26:44;;;;;;;2.10;1.20;;;23.40;52.20;;;;;;5155089;27;20411;-54
2023/07/28 00:29:09;;;;;;;1.50;1.10;;;23.30;52.00;;;;;;5154627;27;20450;-51
2023/07/28 00:31:36;;;;;;;1.90;1.37;;;23.30;52.20;;;;;;5155138;27;20418;-54
2023/07/28 00:34:02;;;;;;;3.60;1.00;;;23.30;52.10;;;;;;5155102;27;20410;-55
2023/07/28 00:36:28;;;;;;;4.53;1.20;;;23.40;51.90;;;;;;5154938;27;20429;-54
2023/07/28 00:38:54;;;;;;;5.10;1.30;;;23.30;51.90;;;;;;5154420;27;20529;-50
2023/07/28 00:41:20;;;;;;;1.73;1.23;;;23.30;52.10;;;;;;5155041;27;20498;-54
2023/07/28 00:43:46;;;;;;;2.20;1.70;;;23.30;52.20;;;;;;5154956;27;20828;-54
2023/07/28 00:46:13;;;;;;;1.37;0.90;;;23.30;52.20;;;;;;5154918;27;20415;-54
2023/07/28 00:48:40;;;;;;;1.90;1.40;;;23.30;52.20;;;;;;5154256;27;20260;-54
2023/07/28 00:51:07;;;;;;;1.60;1.23;;;23.30;52.20;;;;;;5154609;27;20416;-52
2023/07/28 00:53:33;;;;;;;1.93;1.23;;;23.30;52.20;;;;;;5154743;27;20404;-53
2023/07/28 00:55:59;;;;;;;1.80;1.20;;;23.40;52.30;;;;;;5154683;27;20780;-53
2023/07/28 00:58:27;;;;;;;1.73;1.40;;;23.40;52.20;;;;;;5153593;27;20996;-51
2023/07/28 01:00:53;;;;;;;2.00;1.43;;;23.40;52.10;;;;;;5154391;27;20407;-53
2023/07/28 01:03:20;;;;;;;3.97;1.33;;;23.40;52.10;;;;;;5154346;27;20455;-54
2023/07/28 01:06:24;;;;;;;2.30;1.47;;;23.40;52.00;;;;;;5154360;27;20419;-50
2023/07/28 01:09:03;;;;;;;1.97;1.77;;;23.50;52.80;;;;;;5152568;27;20515;-53
2023/07/28 01:11:30;;;;;;;3.13;1.43;;;23.40;51.90;;;;;;5154433;27;20460;-51
2023/07/28 01:13:55;;;;;;;2.43;1.40;;;23.50;52.10;;;;;;5154209;27;20961;-53
2023/07/28 01:16:21;;;;;;;3.83;1.83;;;23.50;52.30;;;;;;5154225;27;20399;-53
2023/07/28 01:18:48;;;;;;;7.27;2.17;;;23.40;52.50;;;;;;5153929;27;20437;-54
2023/07/28 01:21:28;;;;;;;3.50;2.03;;;23.40;52.70;;;;;;5154081;27;20880;-52
2023/07/28 01:24:19;;;;;;;3.83;1.80;;;23.40;52.70;;;;;;5154066;27;20971;-53
2023/07/28 01:26:46;;;;;;;3.00;2.07;;;23.40;52.90;;;;;;5152648;27;20931;-53
2023/07/28 01:29:14;;;;;;;2.30;1.80;;;23.40;53.00;;;;;;5153487;27;20497;-53
2023/07/28 01:31:40;;;;;;;2.90;2.03;;;23.40;53.10;;;;;;5154142;27;20407;-53
2023/07/28 01:34:06;;;;;;;5.23;2.87;;;23.40;53.20;;;;;;5153899;27;20405;-55
2023/07/28 01:36:32;;;;;;;3.40;2.03;;;23.40;53.20;;;;;;5153840;27;20437;-55
2023/07/28 01:38:58;;;;;;;5.23;2.40;;;23.40;53.10;;;;;;5152069;27;20439;-53
2023/07/28 01:41:24;;;;;;;2.33;1.87;;;23.40;53.20;;;;;;5153992;27;20174;-52
2023/07/28 01:43:49;;;;;;;5.20;2.70;;;23.40;53.20;;;;;;5154023;27;20526;-55
2023/07/28 01:46:15;;;;;;;4.30;2.80;;;23.40;53.10;;;;;;5153725;27;20199;-52
2023/07/28 01:48:41;;;;;;;2.37;2.00;;;23.30;53.40;;;;;;5153602;27;20218;-52
2023/07/28 01:51:07;;;;;;;3.37;2.03;;;23.20;53.40;;;;;;5153677;27;20479;-55
2023/07/28 01:53:34;;;;;;;2.00;1.50;;;23.30;53.70;;;;;;5153554;27;20623;-52
2023/07/28 01:56:00;;;;;;;3.73;2.33;;;23.30;53.80;;;;;;5152861;27;20179;-52
2023/07/28 01:58:26;;;;;;;2.27;1.97;;;23.30;53.70;;;;;;5153191;27;20503;-54
2023/07/28 02:00:52;;;;;;;4.10;2.17;;;23.30;54.50;;;;;;5153637;27;20905;-51
2023/07/28 02:03:18;;;;;;;2.20;1.87;;;23.20;54.10;;;;;;5153671;27;20490;-52
2023/07/28 02:05:44;;;;;;;2.50;1.87;;;23.20;54.00;;;;;;5153669;27;20178;-53
2023/07/28 02:08:10;;;;;;;4.63;2.30;;;23.20;53.90;;;;;;5153031;27;20285;-52
2023/07/28 02:10:36;;;;;;;2.60;1.87;;;23.20;54.00;;;;;;5156345;27;20454;-52
2023/07/28 02:13:02;;;;;;;3.03;1.90;;;23.20;53.80;;;;;;5156467;27;20251;-55
2023/07/28 02:15:27;;;;;;;3.93;2.07;;;23.30;53.90;;;;;;5157690;27;20400;-52
2023/07/28 02:17:53;;;;;;;7.00;2.37;;;23.30;53.90;;;;;;5157338;27;20185;-52
2023/07/28 02:20:19;;;;;;;2.90;2.40;;;23.20;53.90;;;;;;5157563;27;20189;-54
2023/07/28 02:22:45;;;;;;;4.17;1.80;;;23.20;54.10;;;;;;5157360;27;20265;-55
2023/07/28 02:25:11;;;;;;;3.17;2.07;;;23.20;54.10;;;;;;5157469;27;20181;-51
2023/07/28 02:27:37;;;;;;;5.47;2.40;;;23.20;54.20;;;;;;5157453;27;20218;-51
2023/07/28 02:30:04;;;;;;;3.43;2.20;;;23.20;54.10;;;;;;5156964;27;20460;-52
2023/07/28 02:32:30;;;;;;;6.67;1.90;;;23.20;54.00;;;;;;5157352;27;20403;-51
2023/07/28 02:34:56;;;;;;;2.60;2.40;;;23.20;54.00;;;;;;5157252;27;20406;-53
2023/07/28 02:37:22;;;;;;;3.20;2.10;;;23.20;54.00;;;;;;5157418;27;20409;-53
2023/07/28 02:39:48;;;;;;;2.47;2.13;;;23.20;54.10;;;;;;5155723;27;20182;-53
2023/07/28 02:42:14;;;;;;;2.17;1.70;;;23.20;54.10;;;;;;5157408;27;20444;-53
2023/07/28 02:44:40;;;;;;;4.40;2.20;;;23.20;54.00;;;;;;5157173;27;20829;-53
2023/07/28 02:47:06;;;;;;;2.40;1.93;;;23.20;54.00;;;;;;5157044;27;20205;-51
2023/07/28 02:49:32;;;;;;;2.30;1.70;;;23.20;54.00;;;;;;5156703;27;20793;-53
2023/07/28 02:51:58;;;;;;;2.23;1.93;;;23.30;54.00;;;;;;5156827;27;20253;-53
2023/07/28 02:54:25;;;;;;;4.23;1.37;;;23.30;53.90;;;;;;5157017;27;20172;-50
2023/07/28 02:56:51;;;;;;;4.63;2.30;;;23.20;53.90;;;;;;5156857;27;20404;-50
2023/07/28 02:59:17;;;;;;;2.00;1.50;;;23.20;53.90;;;;;;5156426;27;20961;-53
2023/07/28 03:01:43;;;;;;;3.67;1.93;;;23.20;53.90;;;;;;5156873;27;20442;-53
2023/07/28 03:04:09;;;;;;;2.50;2.10;;;23.20;54.00;;;;;;5157175;27;20884;-53
2023/07/28 03:06:35;;;;;;;5.03;2.07;;;23.30;54.00;;;;;;5155655;27;20457;-50
2023/07/28 03:09:01;;;;;;;3.07;1.60;;;23.30;53.90;;;;;;5156532;27;20455;-55
2023/07/28 03:11:26;;;;;;;2.63;2.07;;;23.30;53.90;;;;;;5156813;27;20218;-53
2023/07/28 03:13:52;;;;;;;2.40;1.83;;;23.30;53.90;;;;;;5156636;27;20404;-52
2023/07/28 03:16:18;;;;;;;6.30;2.20;;;23.30;54.00;;;;;;5156533;27;20467;-52
2023/07/28 03:18:44;;;;;;;2.67;1.63;;;23.30;54.10;;;;;;5156097;27;20208;-53
2023/07/28 03:21:10;;;;;;;2.70;1.83;;;23.20;54.10;;;;;;5155944;27;20170;-51
2023/07/28 03:23:36;;;;;;;4.57;2.03;;;23.20;54.10;;;;;;5156367;27;20530;-51
2023/07/28 03:26:02;;;;;;;2.20;1.70;;;23.30;54.20;;;;;;5156283;27;20408;-54
2023/07/28 03:28:27;;;;;;;2.13;1.63;;;23.30;54.10;;;;;;5155831;27;20209;-51
2023/07/28 03:30:53;;;;;;;2.97;1.83;;;23.20;54.10;;;;;;5156529;27;20416;-53
2023/07/28 03:33:19;;;;;;;2.83;2.00;;;23.30;54.30;;;;;;5156373;27;20189;-54
2023/07/28 03:35:45;;;;;;;4.43;2.00;;;23.30;54.40;;;;;;5156050;27;20512;-50
2023/07/28 03:38:11;;;;;;;2.00;1.73;;;23.20;54.40;;;;;;5155758;27;20197;-50
2023/07/28 03:40:37;;;;;;;2.63;2.37;;;23.20;54.60;;;;;;5155963;27;20174;-53
2023/07/28 03:43:03;;;;;;;2.70;2.10;;;23.20;54.50;;;;;;5156055;27;20169;-51
2023/07/28 03:45:28;;;;;;;2.50;2.30;;;23.10;54.80;;;;;;5156213;27;20917;-51
2023/07/28 03:47:54;;;;;;;3.00;1.73;;;23.10;55.00;;;;;;5155810;27;20951;-53
2023/07/28 03:50:20;;;;;;;2.63;1.87;;;23.10;55.00;;;;;;5155837;27;20665;-51
2023/07/28 03:52:46;;;;;;;3.87;1.57;;;23.10;55.00;;;;;;5155803;27;20976;-54
2023/07/28 03:55:12;;;;;;;3.60;1.67;;;23.10;54.80;;;;;;5155821;27;20475;-51
2023/07/28 03:57:39;;;;;;;3.87;2.20;;;23.10;54.80;;;;;;5155866;27;20204;-53
2023/07/28 04:00:08;;;;;;;2.67;1.63;;;23.10;55.00;;;;;;5155613;27;20783;-53
2023/07/28 04:02:34;;;;;;;3.63;1.40;;;23.10;54.80;;;;;;5155452;27;20505;-53
2023/07/28 04:05:00;;;;;;;2.50;1.70;;;23.10;54.80;;;;;;5155445;27;20860;-53
2023/07/28 04:07:25;;;;;;;3.27;1.37;;;23.10;54.90;;;;;;5155584;27;20257;-52
2023/07/28 04:09:51;;;;;;;3.30;1.97;;;23.10;54.80;;;;;;5155416;27;20818;-55
2023/07/28 04:12:17;;;;;;;3.43;1.80;;;23.10;54.90;;;;;;5155393;27;20166;-53
2023/07/28 04:14:43;;;;;;;4.27;1.53;;;23.10;55.70;;;;;;5155367;27;20166;-52
2023/07/28 04:17:09;;;;;;;2.50;2.30;;;23.00;55.00;;;;;;5155153;27;20594;-55
2023/07/28 04:19:35;;;;;;;5.20;1.60;;;23.00;55.20;;;;;;5155104;27;20458;-52
2023/07/28 04:22:01;;;;;;;3.90;2.43;;;23.00;56.00;;;;;;5155317;27;20242;-52
2023/07/28 04:24:27;;;;;;;1.90;1.43;;;23.10;55.50;;;;;;5155174;27;20435;-54
2023/07/28 04:26:53;;;;;;;2.37;1.27;;;23.10;56.10;;;;;;5155083;27;20399;-52
2023/07/28 04:29:19;;;;;;;3.77;1.80;;;23.10;55.40;;;;;;5154621;27;20460;-52
2023/07/28 04:31:45;;;;;;;3.83;1.40;;;23.10;55.30;;;;;;5154202;27;20761;-54
2023/07/28 04:34:10;;;;;;;2.73;1.70;;;23.10;55.40;;;;;;5154905;27;20446;-52
2023/07/28 04:36:36;;;;;;;2.07;1.30;;;23.10;55.40;;;;;;5154862;27;20899;-55
2023/07/28 04:39:02;;;;;;;3.20;1.60;;;23.10;55.50;;;;;;5154531;27;20198;-54
2023/07/28 04:41:29;;;;;;;3.73;1.53;;;23.10;55.50;;;;;;5154841;27;20229;-51
2023/07/28 04:43:55;;;;;;;3.03;1.87;;;23.20;55.50;;;;;;5154747;27;20494;-55
2023/07/28 04:46:20;;;;;;;4.13;1.43;;;23.20;55.40;;;;;;5154590;27;20403;-54
2023/07/28 04:48:46;;;;;;;2.07;1.80;;;23.20;55.30;;;;;;5154268;27;20451;-52
2023/07/28 04:51:12;;;;;;;2.57;2.17;;;23.20;55.30;;;;;;5154615;27;20201;-55
2023/07/28 04:53:38;;;;;;;2.13;1.23;;;23.10;55.40;;;;;;5154586;27;20403;-56
2023/07/28 04:56:04;;;;;;;2.73;1.80;;;23.10;55.30;;;;;;5154564;27;20190;-53
2023/07/28 04:58:30;;;;;;;2.40;1.73;;;23.10;55.50;;;;;;5154176;27;20212;-52
2023/07/28 05:00:56;;;;;;;2.17;1.50;;;23.10;55.60;;;;;;5154347;27;20418;-55
2023/07/28 05:03:21;;;;;;;2.10;1.17;;;23.10;55.90;;;;;;5154419;27;20400;-53
2023/07/28 05:05:47;;;;;;;2.00;1.40;;;23.10;55.60;;;;;;5154382;27;20218;-54
2023/07/28 05:08:13;;;;;;;2.07;1.20;;;23.10;55.60;;;;;;5154015;27;20246;-52
2023/07/28 05:10:40;;;;;;;2.00;1.50;;;23.10;56.30;;;;;;5154258;27;20252;-54
2023/07/28 05:13:06;;;;;;;1.90;1.37;;;23.10;55.60;;;;;;5154262;27;20170;-55
2023/07/28 05:15:32;;;;;;;2.10;1.33;;;23.10;55.60;;;;;;5154092;27;20968;-53
2023/07/28 05:17:58;;;;;;;1.93;1.40;;;23.20;55.40;;;;;;5153936;27;20173;-52
2023/07/28 05:20:23;;;;;;;2.17;1.70;;;23.20;55.40;;;;;;5154034;27;20430;-54
2023/07/28 05:22:49;;;;;;;3.10;1.50;;;23.20;55.50;;;;;;5154157;27;20233;-51
2023/07/28 05:25:15;;;;;;;2.10;1.80;;;23.20;55.50;;;;;;5154094;27;20252;-54
2023/07/28 05:27:41;;;;;;;2.70;1.60;;;23.20;55.50;;;;;;5154091;27;20908;-54
2023/07/28 05:30:08;;;;;;;1.80;1.40;;;23.20;55.60;;;;;;5154001;27;20416;-52
2023/07/28 05:32:34;;;;;;;1.80;1.67;;;23.20;55.70;;;;;;5135471;27;20431;-55
2023/07/28 05:35:00;;;;;;;5.00;1.60;;;23.20;55.50;;;;;;5154191;27;20498;-53
2023/07/28 05:37:25;;;;;;;2.33;1.40;;;23.30;55.50;;;;;;5153934;27;20231;-55
2023/07/28 05:39:51;;;;;;;2.50;2.23;;;23.30;55.60;;;;;;5153576;27;20419;-53
2023/07/28 05:42:17;;;;;;;2.77;1.50;;;23.30;55.50;;;;;;5153960;27;20174;-52
2023/07/28 05:44:43;;;;;;;2.53;1.33;;;23.30;55.60;;;;;;5153568;27;20242;-55
2023/07/28 05:47:09;;;;;;;2.50;1.67;;;23.40;55.40;;;;;;5153743;27;20442;-53
2023/07/28 05:49:35;;;;;;;2.37;1.63;;;23.30;55.60;;;;;;5153351;27;20569;-54
2023/07/28 05:52:01;;;;;;;3.17;1.70;;;23.30;55.50;;;;;;5153912;27;20494;-53
2023/07/28 05:54:27;;;;;;;2.83;1.40;;;23.40;55.40;;;;;;5152553;27;20287;-52
2023/07/28 05:56:52;;;;;;;3.63;1.63;;;23.40;55.20;;;;;;5152413;27;20490;-52
2023/07/28 05:59:18;;;;;;;2.27;1.60;;;23.40;55.10;;;;;;5153107;27;20447;-53
2023/07/28 06:01:45;;;;;;;2.00;1.57;;;23.40;55.20;;;;;;5153614;27;20234;-53
2023/07/28 06:04:11;;;;;;;5.70;2.07;;;23.50;55.30;;;;;;5153628;27;20790;-50
2023/07/28 06:06:36;;;;;;;1.93;1.27;;;23.50;55.20;;;;;;5153851;27;20499;-53
2023/07/28 06:09:02;;;;;;;3.80;1.87;;;23.50;55.10;;;;;;5153233;27;20812;-53
2023/07/28 06:11:28;;;;;;;2.23;1.57;;;23.60;54.90;;;;;;5152340;27;20170;-52
2023/07/28 06:13:54;;;;;;;2.47;1.93;;;23.60;54.90;;;;;;5153523;27;20859;-55
2023/07/28 06:16:20;;;;;;;7.00;1.50;;;23.60;54.80;;;;;;5153550;27;20210;-51
2023/07/28 06:18:46;;;;;;;1.87;1.13;;;23.60;54.50;;;;;;5153225;27;20434;-50
2023/07/28 06:21:12;;;;;;;5.40;1.90;;;23.60;54.60;;;;;;5153423;27;20217;-52
2023/07/28 06:23:37;;;;;;;1.77;1.13;;;23.70;54.70;;;;;;5153543;27;20407;-51
2023/07/28 06:26:03;;;;;;;1.90;1.30;;;23.70;54.50;;;;;;5153610;27;20178;-50
2023/07/28 06:28:29;;;;;;;2.13;1.37;;;23.60;54.10;;;;;;5152879;27;20210;-53
2023/07/28 06:30:56;;;;;;;2.07;1.27;;;23.60;54.40;;;;;;5153503;27;20407;-53
2023/07/28 06:33:22;;;;;;;1.63;1.27;;;23.70;54.20;;;;;;5153416;27;20408;-51
2023/07/28 06:35:48;;;;;;;3.87;1.67;;;23.80;54.50;;;;;;5153168;27;20403;-52
2023/07/28 06:38:14;;;;;;;1.60;1.30;;;23.90;54.50;;;;;;5153005;27;20952;-54
2023/07/28 06:40:40;;;;;;;1.93;1.20;;;24.00;54.70;;;;;;5153210;27;20414;-55
2023/07/28 06:43:07;;;;;;;2.20;1.57;;;24.20;54.20;;;;;;5153265;27;20253;-52
2023/07/28 06:45:33;;;;;;;1.80;1.17;;;24.40;53.50;;;;;;5153171;27;20184;-55
2023/07/28 06:47:59;;;;;;;1.70;0.90;;;24.50;53.90;;;;;;5152817;27;20457;-52
2023/07/28 06:50:25;;;;;;;2.47;1.40;;;24.70;53.10;;;;;;5153371;27;20407;-52
2023/07/28 06:52:51;;;;;;;2.70;0.93;;;24.90;52.90;;;;;;5153509;27;20399;-53
2023/07/28 06:55:21;;;;;;;8.33;1.10;;;25.00;52.20;;;;;;5153716;27;20489;-52
2023/07/28 06:57:49;;;;;;;2.43;1.07;;;25.10;51.70;;;;;;5138802;27;20444;-53
2023/07/28 07:00:15;;;;;;;1.40;0.93;;;25.10;51.30;;;;;;5157009;27;20415;-53
2023/07/28 07:02:41;;;;;;;2.20;1.23;;;25.10;51.10;;;;;;5156908;27;20403;-53
2023/07/28 07:05:07;;;;;;;2.20;0.90;;;25.00;51.40;;;;;;5156740;27;20440;-52
2023/07/28 07:07:33;;;;;;;1.57;1.00;;;25.00;51.30;;;;;;5156566;27;20895;-53
2023/07/28 07:09:59;;;;;;;1.47;0.90;;;25.00;51.00;;;;;;5156336;27;20500;-52
2023/07/28 07:12:25;;;;;;;2.40;1.10;;;24.90;50.40;;;;;;5156698;27;20952;-51
2023/07/28 07:14:51;;;;;;;2.20;1.10;;;24.90;50.40;;;;;;5156765;27;20508;-55
2023/07/28 07:17:17;;;;;;;1.47;0.73;;;24.90;50.80;;;;;;5156455;27;20764;-52
2023/07/28 07:19:43;;;;;;;1.30;0.80;;;24.90;50.90;;;;;;5156161;27;20431;-52
2023/07/28 07:22:09;;;;;;;1.50;0.90;;;24.80;50.90;;;;;;5155134;27;20411;-51
2023/07/28 07:24:35;;;;;;;3.23;1.30;;;24.90;50.80;;;;;;5156303;27;20487;-51
2023/07/28 07:27:01;;;;;;;1.47;1.03;;;24.90;51.20;;;;;;5156635;27;20421;-53
2023/07/28 07:29:27;;;;;;;2.00;0.93;;;24.90;51.00;;;;;;5156208;27;20483;-53
2023/07/28 07:31:55;;;;;;;2.57;1.47;;;25.00;50.10;;;;;;5156509;27;20405;-52
2023/07/28 07:34:23;;;;;;;4.90;0.80;;;25.00;50.10;;;;;;5156423;27;20407;-51
2023/07/28 07:36:51;;;;;;;1.83;1.07;;;25.00;50.80;;;;;;5156673;27;20435;-54
2023/07/28 07:39:17;;;;;;;4.00;1.37;;;25.00;50.30;;;;;;5156256;27;20438;-51
2023/07/28 07:41:43;;;;;;;1.37;0.80;;;24.90;50.40;;;;;;5156648;27;20399;-51
2023/07/28 07:44:09;;;;;;;1.47;0.87;;;24.90;50.30;;;;;;5156490;27;20559;-51
2023/07/28 07:46:35;;;;;;;2.53;1.20;;;24.90;50.70;;;;;;5156634;27;20182;-55
2023/07/28 07:49:00;;;;;;;1.40;0.97;;;25.00;50.90;;;;;;5155982;27;20225;-52
2023/07/28 07:51:26;;;;;;;2.40;0.90;;;25.00;50.60;;;;;;5156275;27;20169;-52
2023/07/28 07:53:52;;;;;;;3.50;1.10;;;25.00;50.10;;;;;;5156477;27;20170;-53
2023/07/28 07:56:18;;;;;;;3.47;1.40;;;25.00;49.80;;;;;;5156405;27;20599;-53
2023/07/28 07:58:44;;;;;;;1.73;0.77;;;25.10;49.60;;;;;;5155832;27;20202;-53
2023/07/28 08:01:10;;;;;;;1.43;0.97;;;25.10;49.70;;;;;;5156234;27;20181;-52
2023/07/28 08:03:38;;;;;;;1.40;0.90;;;25.10;50.20;;;;;;5155823;27;20436;-54
2023/07/28 08:06:04;;;;;;;4.50;0.90;;;25.10;50.00;;;;;;5155563;27;20589;-52
2023/07/28 08:08:30;;;;;;;2.53;1.20;;;25.20;49.40;;;;;;5155105;27;20458;-52
2023/07/28 08:10:56;;;;;;;1.80;1.00;;;25.20;49.50;;;;;;5155504;27;20177;-54
2023/07/28 08:13:22;;;;;;;2.23;0.73;;;25.20;49.10;;;;;;5155405;27;20412;-53
2023/07/28 08:15:48;;;;;;;1.20;0.80;;;25.20;49.50;;;;;;5155538;27;20180;-51
2023/07/28 08:18:14;;;;;;;2.03;0.83;;;25.50;49.50;;;;;;5155064;27;20815;-50
2023/07/28 08:20:40;;;;;;;1.40;1.00;;;25.50;49.60;;;;;;5155227;27;20440;-55
2023/07/28 08:23:07;;;;;;;4.40;1.13;;;25.70;49.70;;;;;;5155199;27;20404;-53
2023/07/28 08:25:34;;;;;;;1.47;0.97;;;25.90;48.60;;;;;;5136759;27;20924;-51
2023/07/28 08:28:00;;;;;;;1.50;0.90;;;26.00;48.90;;;;;;5155062;27;20465;-52
2023/07/28 08:30:26;;;;;;;1.43;0.90;;;26.10;48.10;;;;;;5155138;27;20407;-54
2023/07/28 08:32:52;;;;;;;2.37;0.80;;;26.10;48.20;;;;;;5155317;27;20407;-51
2023/07/28 08:35:18;;;;;;;3.30;0.90;;;26.10;47.30;;;;;;5154960;27;20443;-53
2023/07/28 08:37:44;;;;;;;1.97;0.90;;;26.10;46.20;;;;;;5154682;27;20195;-52
2023/07/28 08:40:11;;;;;;;2.70;1.13;;;26.00;47.70;;;;;;5154957;27;20410;-52
2023/07/28 08:42:39;;;;;;;1.63;1.03;;;25.90;47.70;;;;;;5154760;27;21048;-54
2023/07/28 08:45:06;;;;;;;2.70;0.90;;;25.90;47.50;;;;;;5155088;27;20439;-54
2023/07/28 08:47:32;;;;;;;1.53;1.00;;;25.80;47.10;;;;;;5154810;27;20403;-51
2023/07/28 08:49:58;;;;;;;2.87;1.03;;;25.80;47.80;;;;;;5154248;27;20488;-51
2023/07/28 08:52:24;;;;;;;1.50;1.10;;;25.80;47.00;;;;;;5154943;27;20411;-54
2023/07/28 08:54:51;;;;;;;4.90;0.90;;;25.70;48.20;;;;;;5154735;27;20794;-54
2023/07/28 08:57:16;;;;;;;1.90;1.10;;;25.70;46.70;;;;;;5154816;27;20176;-53
2023/07/28 08:59:47;;;;;;;2.03;1.07;;;25.60;47.10;;;;;;5154093;27;20811;-53
2023/07/28 09:02:16;;;;;;;2.40;0.93;;;25.50;47.50;;;;;;5154710;27;20897;-52
2023/07/28 09:04:43;;;;;;;1.67;1.03;;;25.50;48.10;;;;;;5155086;27;20415;-53
2023/07/28 09:07:09;;;;;;;3.07;1.80;;;25.50;47.70;;;;;;5154849;27;20442;-52
2023/07/28 09:09:36;;;;;;;2.67;1.60;;;25.40;48.30;;;;;;5154625;27;20476;-53
2023/07/28 09:12:03;;;;;;;3.27;2.00;;;25.50;47.90;;;;;;5153527;27;20959;-52
2023/07/28 09:14:30;;;;;;;8.03;7.33;;;25.50;48.50;;;;;;5154891;27;20395;-52
2023/07/28 09:17:05;;;;;;;6.60;6.00;;;25.50;49.20;;;;;;5155177;27;20741;-54
2023/07/28 09:19:31;;;;;;;2.80;2.60;;;25.50;48.60;;;;;;5154008;27;20779;-52
2023/07/28 09:22:01;;;;;;;2.50;1.40;;;25.50;48.60;;;;;;5155105;27;20845;-53
2023/07/28 09:24:32;;;;;;;3.80;1.57;;;25.50;48.30;;;;;;5154681;27;20752;-52
2023/07/28 09:26:59;;;;;;;6.97;6.47;;;25.60;48.90;;;;;;5154510;27;20419;-52
2023/07/28 09:29:27;;;;;;;2.60;2.40;;;25.60;49.50;;;;;;5154175;27;20967;-54
2023/07/28 09:32:02;;;;;;;3.47;1.20;;;25.70;48.50;;;;;;5154685;27;20488;-54
2023/07/28 09:34:29;;;;;;;2.27;1.20;;;25.70;48.10;;;;;;5154224;27;20387;-53
2023/07/28 09:36:56;;;;;;;1.80;1.20;;;25.80;48.20;;;;;;5153985;27;20435;-55
2023/07/28 09:39:22;;;;;;;47.70;43.20;;;25.80;47.50;;;;;;5153753;27;20514;-52
2023/07/28 09:41:48;;;;;;;4.33;1.50;;;25.90;47.50;;;;;;5154122;27;20438;-55
2023/07/28 09:44:15;;;;;;;1.93;1.57;;;26.10;48.40;;;;;;5153760;27;20415;-55
2023/07/28 09:46:51;;;;;;;19.00;17.50;;;26.30;48.20;;;;;;5153729;27;20407;-52
2023/07/28 09:49:37;;;;;;;3.53;2.37;;;26.50;48.30;;;;;;5153914;27;21062;-50
2023/07/28 09:52:09;;;;;;;1.40;1.03;;;26.70;48.60;;;;;;5154490;27;20387;-52
2023/07/28 09:54:43;;;;;;;5.30;1.27;;;26.90;46.50;;;;;;5154528;27;20384;-51
2023/07/28 09:57:15;;;;;;;1.93;0.90;;;26.90;44.90;;;;;;5154486;27;20416;-52
2023/07/28 09:59:42;;;;;;;2.33;0.83;;;27.00;45.30;;;;;;5154303;27;20449;-52
2023/07/28 10:02:09;;;;;;;2.00;1.03;;;27.00;44.70;;;;;;5154229;27;20908;-53
2023/07/28 10:04:35;;;;;;;4.37;2.37;;;27.00;45.10;;;;;;5154233;27;20415;-57
2023/07/28 10:07:03;;;;;;;2.00;0.97;;;27.10;45.20;;;;;;5154312;27;20403;-53
2023/07/28 10:09:31;;;;;;;3.50;3.20;;;27.10;44.20;;;;;;5153704;27;20834;-52
2023/07/28 10:11:57;;;;;;;3.17;1.60;;;27.10;44.00;;;;;;5154416;27;20399;-55
2023/07/28 10:14:28;;;;;;;1.30;0.63;;;27.10;44.80;;;;;;5154397;27;20399;-55
2023/07/28 10:16:54;;;;;;;1.30;0.90;;;27.10;44.30;;;;;;5154531;27;20146;-52
2023/07/28 10:19:21;;;;;;;1.50;1.00;;;27.10;44.70;;;;;;5153647;27;20479;-51
2023/07/28 10:21:46;;;;;;;2.67;1.20;;;27.20;44.20;;;;;;5153905;27;20922;-54
2023/07/28 10:24:14;;;;;;;3.17;1.20;;;27.20;43.30;;;;;;5154026;27;20411;-54
2023/07/28 10:26:41;;;;;;;2.70;1.17;;;27.10;44.00;;;;;;5154087;27;20430;-50
2023/07/28 10:29:14;;;;;;;4.67;4.27;;;27.20;43.60;;;;;;5153590;27;20450;-52
2023/07/28 10:31:51;;;;;;;3.10;1.63;;;27.20;43.60;;;;;;5156756;27;20415;-54
2023/07/28 10:34:18;;;;;;;6.77;3.37;;;27.20;44.60;;;;;;5157828;27;20394;-51
2023/07/28 10:36:45;;;;;;;28.80;25.70;;;27.20;44.40;;;;;;5157842;27;20408;-55
2023/07/28 10:39:18;;;;;;;52.37;46.80;;;27.20;44.20;;;;;;5157698;27;20437;-51
2023/07/28 10:42:08;;;;;;;109.70;93.10;;;27.30;44.10;;;;;;5158109;27;20429;-51
2023/07/28 10:44:35;;;;;;;18.17;16.20;;;27.30;44.40;;;;;;5152163;27;20496;-54
2023/07/28 10:47:01;;;;;;;3.90;3.60;;;27.40;46.20;;;;;;5157587;27;20892;-52
2023/07/28 10:49:28;;;;;;;3.60;2.20;;;27.60;45.10;;;;;;5157367;27;20462;-51
2023/07/28 10:51:54;;;;;;;7.20;3.63;;;27.70;44.10;;;;;;5157614;27;20425;-54
2023/07/28 10:54:21;;;;;;;1.47;1.17;;;27.80;44.40;;;;;;5157315;27;20395;-54
2023/07/28 10:56:48;;;;;;;3.60;3.30;;;27.90;43.40;;;;;;5157159;27;20498;-52
2023/07/28 10:59:15;;;;;;;5.67;5.20;;;28.00;44.70;;;;;;5156617;27;20442;-55
2023/07/28 11:01:42;;;;;;;2.20;1.33;;;28.10;44.40;;;;;;5157276;27;20498;-51
2023/07/28 11:04:12;;;;;;;2.37;1.97;;;28.30;44.10;;;;;;5157074;27;20904;-51
2023/07/28 11:06:41;;;;;;;7.17;4.07;;;28.50;44.90;;;;;;5155735;27;20497;-54
2023/07/28 11:09:08;;;;;;;1.53;1.43;;;28.80;45.20;;;;;;5156438;27;20455;-54
2023/07/28 11:11:36;;;;;;;4.40;4.00;;;29.10;43.10;;;;;;5156703;27;20413;-51
2023/07/28 11:14:03;;;;;;;2.83;2.10;;;29.30;42.20;;;;;;5156899;27;20412;-51
2023/07/28 11:16:29;;;;;;;6.50;5.03;;;29.50;41.70;;;;;;5156578;27;20412;-54
2023/07/28 11:19:02;;;;;;;4.70;4.30;;;29.70;40.80;;;;;;5156310;27;20423;-52
2023/07/28 11:21:28;;;;;;;4.10;3.80;;;29.90;40.70;;;;;;5156846;27;20498;-54
2023/07/28 11:23:54;;;;;;;1.63;1.00;;;29.90;41.50;;;;;;5156491;27;20979;-50
2023/07/28 11:26:22;;;;;;;2.27;1.13;;;29.90;38.90;;;;;;5156430;27;20441;-54
2023/07/28 11:28:48;;;;;;;2.90;1.70;;;29.90;38.70;;;;;;5156447;27;20465;-52
2023/07/28 11:31:14;;;;;;;2.60;1.63;;;29.90;39.10;;;;;;5156397;27;20399;-52
2023/07/28 11:33:40;;;;;;;4.00;3.10;;;29.90;38.50;;;;;;5156294;27;20432;-52
2023/07/28 11:36:06;;;;;;;8.93;6.90;;;29.80;38.70;;;;;;5156323;27;20491;-51
2023/07/28 11:38:35;;;;;;;15.37;13.87;;;29.70;37.80;;;;;;5156034;27;20480;-54
2023/07/28 11:41:02;;;;;;;3.40;2.40;;;29.60;38.90;;;;;;5155749;27;20422;-54
2023/07/28 11:43:28;;;;;;;2.00;1.40;;;29.50;38.90;;;;;;5156156;27;20418;-51
2023/07/28 11:45:54;;;;;;;3.60;1.77;;;29.50;39.00;;;;;;5156176;27;20416;-54
2023/07/28 11:48:20;;;;;;;1.53;0.93;;;29.50;39.30;;;;;;5155663;27;20454;-54
2023/07/28 11:50:46;;;;;;;1.70;1.00;;;29.70;39.00;;;;;;5154879;27;20179;-52
2023/07/28 11:53:12;;;;;;;2.50;0.90;;;29.80;38.60;;;;;;5156315;27;20403;-51
2023/07/28 11:55:39;;;;;;;3.00;1.00;;;29.80;37.90;;;;;;5155943;27;20407;-54
2023/07/28 11:58:06;;;;;;;4.80;1.23;;;29.80;37.00;;;;;;5155521;27;20746;-51
2023/07/28 12:00:36;;;;;;;2.23;1.00;;;29.70;36.70;;;;;;5156153;27;20400;-52
2023/07/28 12:03:09;;;;;;;2.30;1.53;;;29.70;36.00;;;;;;5155947;27;20402;-53
2023/07/28 12:05:37;;;;;;;2.40;1.20;;;29.50;36.10;;;;;;5155831;27;20483;-52
2023/07/28 12:08:03;;;;;;;5.07;4.57;;;29.40;37.60;;;;;;5155201;27;20490;-54
2023/07/28 12:10:31;;;;;;;2.77;2.10;;;29.50;38.30;;;;;;5155750;27;20405;-54
2023/07/28 12:13:03;;;;;;;2.17;1.40;;;29.70;37.60;;;;;;5155524;27;20409;-52
2023/07/28 12:15:31;;;;;;;1.90;1.20;;;29.90;39.00;;;;;;5155890;27;20393;-51
2023/07/28 12:18:10;;;;;;;1.70;1.20;;;30.10;37.80;;;;;;5155523;27;20441;-53
2023/07/28 12:20:41;;;;;;;1.47;1.03;;;30.30;37.30;;;;;;5156282;27;20841;-54
2023/07/28 12:23:08;;;;;;;4.70;3.87;;;30.50;35.80;;;;;;5155792;27;20407;-53
2023/07/28 12:25:37;;;;;;;14.63;2.97;;;30.50;36.60;;;;;;5154328;27;20438;-53
2023/07/28 12:28:04;;;;;;;3.97;3.47;;;30.40;36.90;;;;;;5155259;27;20450;-53
2023/07/28 12:30:29;;;;;;;3.20;1.30;;;30.40;37.10;;;;;;5155536;27;20435;-53
2023/07/28 12:32:55;;;;;;;1.97;1.27;;;30.40;36.10;;;;;;5155510;27;20914;-54
2023/07/28 12:35:23;;;;;;;7.77;2.40;;;30.60;37.50;;;;;;5155561;27;20498;-53
2023/07/28 12:37:51;;;;;;;4.30;2.90;;;30.70;37.80;;;;;;5155016;27;20206;-53
2023/07/28 12:40:17;;;;;;;2.80;2.00;;;30.80;36.90;;;;;;5155283;27;20414;-55
2023/07/28 12:42:43;;;;;;;3.50;3.20;;;30.80;35.80;;;;;;5155246;27;20410;-51
2023/07/28 12:45:10;;;;;;;4.10;3.17;;;30.70;36.80;;;;;;5155382;27;20414;-53